sensor_id;sensor_type;location;lat;lon;timestamp;P1;durP1;ratioP1;P2;durP2;ratioP2
49722;SDS011;43484;43.608;1.458;2024-03-02T00:00:30;13.05;;;7.97;;
49722;SDS011;43484;43.608;1.458;2024-03-02T00:02:57;16.13;;;8.82;;
49722;SDS011;43484;43.608;1.458;2024-03-02T00:05:24;17.77;;;8.88;;
49722;SDS011;43484;43.608;1.458;2024-03-02T00:10:22;18.08;;;9.07;;
49722;SDS011;43484;43.608;1.458;2024-03-02T00:12:58;15.93;;;8.90;;
49722;SDS011;43484;43.608;1.458;2024-03-02T00:18:14;15.65;;;9.05;;
49722;SDS011;43484;43.608;1.458;2024-03-02T00:20:45;18.55;;;9.65;;
49722;SDS011;43484;43.608;1.458;2024-03-02T00:23:14;17.88;;;9.55;;
49722;SDS011;43484;43.608;1.458;2024-03-02T00:25:43;17.92;;;8.57;;
49722;SDS011;43484;43.608;1.458;2024-03-02T00:33:26;15.85;;;9.20;;
49722;SDS011;43484;43.608;1.458;2024-03-02T00:35:54;14.18;;;8.75;;
49722;SDS011;43484;43.608;1.458;2024-03-02T00:38:22;20.77;;;9.68;;
49722;SDS011;43484;43.608;1.458;2024-03-02T00:40:49;13.15;;;7.68;;
49722;SDS011;43484;43.608;1.458;2024-03-02T00:46:18;12.23;;;8.18;;
49722;SDS011;43484;43.608;1.458;2024-03-02T00:48:51;17.38;;;7.88;;
49722;SDS011;43484;43.608;1.458;2024-03-02T00:51:21;16.27;;;8.48;;
49722;SDS011;43484;43.608;1.458;2024-03-02T00:53:49;14.40;;;7.80;;
49722;SDS011;43484;43.608;1.458;2024-03-02T00:56:17;16.55;;;7.47;;
49722;SDS011;43484;43.608;1.458;2024-03-02T00:58:44;13.85;;;6.57;;
49722;SDS011;43484;43.608;1.458;2024-03-02T01:01:11;12.63;;;6.68;;
49722;SDS011;43484;43.608;1.458;2024-03-02T01:03:37;7.93;;;5.07;;
49722;SDS011;43484;43.608;1.458;2024-03-02T01:06:04;9.48;;;5.47;;
49722;SDS011;43484;43.608;1.458;2024-03-02T01:08:36;10.55;;;5.63;;
49722;SDS011;43484;43.608;1.458;2024-03-02T01:11:05;10.40;;;5.78;;
49722;SDS011;43484;43.608;1.458;2024-03-02T01:13:31;11.65;;;5.72;;
49722;SDS011;43484;43.608;1.458;2024-03-02T01:15:58;10.98;;;5.32;;
49722;SDS011;43484;43.608;1.458;2024-03-02T01:18:25;10.65;;;6.10;;
49722;SDS011;43484;43.608;1.458;2024-03-02T01:20:52;10.48;;;5.80;;
49722;SDS011;43484;43.608;1.458;2024-03-02T01:23:22;10.35;;;5.30;;
49722;SDS011;43484;43.608;1.458;2024-03-02T01:25:50;10.35;;;5.35;;
49722;SDS011;43484;43.608;1.458;2024-03-02T01:28:18;9.48;;;5.95;;
49722;SDS011;43484;43.608;1.458;2024-03-02T01:30:47;11.77;;;6.10;;
49722;SDS011;43484;43.608;1.458;2024-03-02T01:33:16;8.57;;;5.22;;
49722;SDS011;43484;43.608;1.458;2024-03-02T01:35:44;13.48;;;6.35;;
49722;SDS011;43484;43.608;1.458;2024-03-02T01:38:11;13.27;;;6.15;;
49722;SDS011;43484;43.608;1.458;2024-03-02T01:40:38;12.25;;;5.43;;
49722;SDS011;43484;43.608;1.458;2024-03-02T01:43:05;12.52;;;6.10;;
49722;SDS011;43484;43.608;1.458;2024-03-02T01:45:33;18.02;;;6.63;;
49722;SDS011;43484;43.608;1.458;2024-03-02T01:48:01;8.82;;;5.43;;
49722;SDS011;43484;43.608;1.458;2024-03-02T01:50:29;13.43;;;5.30;;
49722;SDS011;43484;43.608;1.458;2024-03-02T01:52:58;10.73;;;5.38;;
49722;SDS011;43484;43.608;1.458;2024-03-02T01:55:25;10.40;;;4.97;;
49722;SDS011;43484;43.608;1.458;2024-03-02T01:57:53;15.00;;;5.72;;
49722;SDS011;43484;43.608;1.458;2024-03-02T02:00:20;9.10;;;5.43;;
49722;SDS011;43484;43.608;1.458;2024-03-02T02:02:48;12.55;;;6.13;;
49722;SDS011;43484;43.608;1.458;2024-03-02T02:05:16;9.48;;;5.35;;
49722;SDS011;43484;43.608;1.458;2024-03-02T02:07:43;11.18;;;6.80;;
49722;SDS011;43484;43.608;1.458;2024-03-02T02:10:10;15.23;;;6.55;;
49722;SDS011;43484;43.608;1.458;2024-03-02T02:12:37;10.57;;;5.57;;
49722;SDS011;43484;43.608;1.458;2024-03-02T02:15:04;7.90;;;3.97;;
49722;SDS011;43484;43.608;1.458;2024-03-02T02:17:49;10.98;;;4.13;;
49722;SDS011;43484;43.608;1.458;2024-03-02T02:20:16;6.47;;;3.53;;
49722;SDS011;43484;43.608;1.458;2024-03-02T02:25:40;6.47;;;3.00;;
49722;SDS011;43484;43.608;1.458;2024-03-02T02:28:06;8.30;;;3.08;;
49722;SDS011;43484;43.608;1.458;2024-03-02T02:30:33;7.85;;;3.30;;
49722;SDS011;43484;43.608;1.458;2024-03-02T02:33:00;8.02;;;3.50;;
49722;SDS011;43484;43.608;1.458;2024-03-02T02:35:27;8.68;;;3.20;;
49722;SDS011;43484;43.608;1.458;2024-03-02T02:37:54;7.25;;;3.92;;
49722;SDS011;43484;43.608;1.458;2024-03-02T02:40:22;7.47;;;3.67;;
49722;SDS011;43484;43.608;1.458;2024-03-02T02:42:50;9.23;;;4.70;;
49722;SDS011;43484;43.608;1.458;2024-03-02T02:45:19;9.05;;;4.65;;
49722;SDS011;43484;43.608;1.458;2024-03-02T02:47:46;10.50;;;5.72;;
49722;SDS011;43484;43.608;1.458;2024-03-02T02:50:12;12.50;;;5.85;;
49722;SDS011;43484;43.608;1.458;2024-03-02T02:52:40;14.93;;;6.00;;
49722;SDS011;43484;43.608;1.458;2024-03-02T02:55:08;9.65;;;5.82;;
49722;SDS011;43484;43.608;1.458;2024-03-02T02:57:36;11.07;;;6.25;;
49722;SDS011;43484;43.608;1.458;2024-03-02T03:00:05;10.00;;;5.65;;
49722;SDS011;43484;43.608;1.458;2024-03-02T03:02:40;10.02;;;5.65;;
49722;SDS011;43484;43.608;1.458;2024-03-02T03:05:08;9.63;;;5.55;;
49722;SDS011;43484;43.608;1.458;2024-03-02T03:07:36;10.68;;;5.93;;
49722;SDS011;43484;43.608;1.458;2024-03-02T03:10:04;14.27;;;6.97;;
49722;SDS011;43484;43.608;1.458;2024-03-02T03:12:32;12.73;;;6.40;;
49722;SDS011;43484;43.608;1.458;2024-03-02T03:14:59;10.70;;;6.70;;
49722;SDS011;43484;43.608;1.458;2024-03-02T03:17:26;12.30;;;6.20;;
49722;SDS011;43484;43.608;1.458;2024-03-02T03:19:53;10.90;;;5.68;;
49722;SDS011;43484;43.608;1.458;2024-03-02T03:22:21;11.07;;;6.28;;
49722;SDS011;43484;43.608;1.458;2024-03-02T03:24:48;9.85;;;5.38;;
49722;SDS011;43484;43.608;1.458;2024-03-02T03:27:14;12.30;;;5.60;;
49722;SDS011;43484;43.608;1.458;2024-03-02T03:29:41;12.60;;;5.90;;
49722;SDS011;43484;43.608;1.458;2024-03-02T03:32:08;11.00;;;5.22;;
49722;SDS011;43484;43.608;1.458;2024-03-02T03:34:34;10.40;;;4.97;;
49722;SDS011;43484;43.608;1.458;2024-03-02T03:37:02;8.93;;;5.05;;
49722;SDS011;43484;43.608;1.458;2024-03-02T03:39:28;12.35;;;5.35;;
49722;SDS011;43484;43.608;1.458;2024-03-02T03:41:55;10.57;;;4.90;;
49722;SDS011;43484;43.608;1.458;2024-03-02T03:44:22;9.07;;;5.10;;
49722;SDS011;43484;43.608;1.458;2024-03-02T03:46:49;7.65;;;4.80;;
49722;SDS011;43484;43.608;1.458;2024-03-02T03:49:15;9.98;;;5.20;;
49722;SDS011;43484;43.608;1.458;2024-03-02T03:51:42;12.02;;;5.28;;
49722;SDS011;43484;43.608;1.458;2024-03-02T03:54:09;11.90;;;5.05;;
49722;SDS011;43484;43.608;1.458;2024-03-02T03:56:37;9.95;;;4.88;;
49722;SDS011;43484;43.608;1.458;2024-03-02T03:59:04;14.93;;;5.30;;
49722;SDS011;43484;43.608;1.458;2024-03-02T04:01:31;10.00;;;4.47;;
49722;SDS011;43484;43.608;1.458;2024-03-02T04:03:58;8.98;;;4.28;;
49722;SDS011;43484;43.608;1.458;2024-03-02T04:06:25;9.85;;;4.50;;
49722;SDS011;43484;43.608;1.458;2024-03-02T04:08:51;5.07;;;4.03;;
49722;SDS011;43484;43.608;1.458;2024-03-02T04:11:18;6.32;;;3.70;;
49722;SDS011;43484;43.608;1.458;2024-03-02T04:13:45;6.43;;;3.55;;
49722;SDS011;43484;43.608;1.458;2024-03-02T04:16:12;11.55;;;3.50;;
49722;SDS011;43484;43.608;1.458;2024-03-02T04:18:38;7.47;;;3.35;;
49722;SDS011;43484;43.608;1.458;2024-03-02T04:21:06;9.65;;;3.20;;
49722;SDS011;43484;43.608;1.458;2024-03-02T04:23:32;8.02;;;4.10;;
49722;SDS011;43484;43.608;1.458;2024-03-02T04:25:59;17.27;;;4.20;;
49722;SDS011;43484;43.608;1.458;2024-03-02T04:28:26;7.55;;;3.40;;
49722;SDS011;43484;43.608;1.458;2024-03-02T04:30:53;7.63;;;3.42;;
49722;SDS011;43484;43.608;1.458;2024-03-02T04:33:20;7.53;;;3.80;;
49722;SDS011;43484;43.608;1.458;2024-03-02T04:35:46;13.25;;;3.20;;
49722;SDS011;43484;43.608;1.458;2024-03-02T04:38:13;8.13;;;3.58;;
49722;SDS011;43484;43.608;1.458;2024-03-02T04:40:40;6.03;;;3.35;;
49722;SDS011;43484;43.608;1.458;2024-03-02T04:43:06;6.40;;;3.05;;
49722;SDS011;43484;43.608;1.458;2024-03-02T04:45:37;6.55;;;2.60;;
49722;SDS011;43484;43.608;1.458;2024-03-02T04:48:04;7.60;;;3.40;;
49722;SDS011;43484;43.608;1.458;2024-03-02T04:50:31;6.45;;;3.08;;
49722;SDS011;43484;43.608;1.458;2024-03-02T04:52:58;6.47;;;3.13;;
49722;SDS011;43484;43.608;1.458;2024-03-02T04:55:25;6.55;;;2.63;;
49722;SDS011;43484;43.608;1.458;2024-03-02T04:58:11;8.35;;;3.40;;
49722;SDS011;43484;43.608;1.458;2024-03-02T05:00:38;5.38;;;2.95;;
49722;SDS011;43484;43.608;1.458;2024-03-02T05:03:04;8.55;;;3.83;;
49722;SDS011;43484;43.608;1.458;2024-03-02T05:05:31;10.23;;;3.95;;
49722;SDS011;43484;43.608;1.458;2024-03-02T05:07:58;7.55;;;3.67;;
49722;SDS011;43484;43.608;1.458;2024-03-02T05:10:24;5.97;;;2.97;;
49722;SDS011;43484;43.608;1.458;2024-03-02T05:12:51;11.05;;;3.80;;
49722;SDS011;43484;43.608;1.458;2024-03-02T05:15:25;7.75;;;3.00;;
49722;SDS011;43484;43.608;1.458;2024-03-02T05:17:52;7.15;;;3.45;;
49722;SDS011;43484;43.608;1.458;2024-03-02T05:20:20;12.32;;;3.55;;
49722;SDS011;43484;43.608;1.458;2024-03-02T05:22:47;7.97;;;3.45;;
49722;SDS011;43484;43.608;1.458;2024-03-02T05:25:13;7.40;;;3.30;;
49722;SDS011;43484;43.608;1.458;2024-03-02T05:27:40;9.65;;;2.85;;
49722;SDS011;43484;43.608;1.458;2024-03-02T05:30:07;7.22;;;2.60;;
49722;SDS011;43484;43.608;1.458;2024-03-02T05:32:35;8.73;;;3.47;;
49722;SDS011;43484;43.608;1.458;2024-03-02T05:35:01;8.88;;;3.22;;
49722;SDS011;43484;43.608;1.458;2024-03-02T05:37:29;7.25;;;3.13;;
49722;SDS011;43484;43.608;1.458;2024-03-02T05:39:56;5.45;;;2.70;;
49722;SDS011;43484;43.608;1.458;2024-03-02T05:42:23;5.35;;;2.35;;
49722;SDS011;43484;43.608;1.458;2024-03-02T05:44:49;4.70;;;2.20;;
49722;SDS011;43484;43.608;1.458;2024-03-02T05:47:16;5.13;;;1.88;;
49722;SDS011;43484;43.608;1.458;2024-03-02T05:49:43;5.95;;;2.25;;
49722;SDS011;43484;43.608;1.458;2024-03-02T05:52:09;6.18;;;2.17;;
49722;SDS011;43484;43.608;1.458;2024-03-02T05:54:37;5.63;;;2.22;;
49722;SDS011;43484;43.608;1.458;2024-03-02T05:57:05;5.38;;;2.58;;
49722;SDS011;43484;43.608;1.458;2024-03-02T06:00:11;5.18;;;2.72;;
49722;SDS011;43484;43.608;1.458;2024-03-02T06:02:40;4.70;;;3.10;;
49722;SDS011;43484;43.608;1.458;2024-03-02T06:05:07;7.35;;;2.72;;
49722;SDS011;43484;43.608;1.458;2024-03-02T06:07:34;4.47;;;2.28;;
49722;SDS011;43484;43.608;1.458;2024-03-02T06:10:00;8.60;;;2.25;;
49722;SDS011;43484;43.608;1.458;2024-03-02T06:12:27;4.57;;;2.17;;
49722;SDS011;43484;43.608;1.458;2024-03-02T06:14:54;7.00;;;2.45;;
49722;SDS011;43484;43.608;1.458;2024-03-02T06:17:20;5.50;;;2.70;;
49722;SDS011;43484;43.608;1.458;2024-03-02T06:19:47;3.78;;;2.00;;
49722;SDS011;43484;43.608;1.458;2024-03-02T06:22:14;6.50;;;2.40;;
49722;SDS011;43484;43.608;1.458;2024-03-02T06:24:40;4.55;;;2.20;;
49722;SDS011;43484;43.608;1.458;2024-03-02T06:27:07;5.53;;;2.75;;
49722;SDS011;43484;43.608;1.458;2024-03-02T06:29:34;5.35;;;2.38;;
49722;SDS011;43484;43.608;1.458;2024-03-02T06:32:00;5.30;;;2.25;;
49722;SDS011;43484;43.608;1.458;2024-03-02T06:34:27;6.07;;;2.63;;
49722;SDS011;43484;43.608;1.458;2024-03-02T06:36:54;3.45;;;2.30;;
49722;SDS011;43484;43.608;1.458;2024-03-02T06:39:21;7.30;;;2.78;;
49722;SDS011;43484;43.608;1.458;2024-03-02T06:41:47;5.20;;;2.65;;
49722;SDS011;43484;43.608;1.458;2024-03-02T06:44:14;5.80;;;2.70;;
49722;SDS011;43484;43.608;1.458;2024-03-02T06:46:41;6.70;;;2.85;;
49722;SDS011;43484;43.608;1.458;2024-03-02T06:49:07;6.47;;;2.70;;
49722;SDS011;43484;43.608;1.458;2024-03-02T06:51:36;7.72;;;3.10;;
49722;SDS011;43484;43.608;1.458;2024-03-02T06:54:02;8.82;;;2.35;;
49722;SDS011;43484;43.608;1.458;2024-03-02T06:56:29;4.75;;;3.00;;
49722;SDS011;43484;43.608;1.458;2024-03-02T06:58:57;8.10;;;3.20;;
49722;SDS011;43484;43.608;1.458;2024-03-02T07:01:23;7.28;;;2.80;;
49722;SDS011;43484;43.608;1.458;2024-03-02T07:03:52;7.53;;;3.22;;
49722;SDS011;43484;43.608;1.458;2024-03-02T07:06:19;6.45;;;4.03;;
49722;SDS011;43484;43.608;1.458;2024-03-02T07:08:46;7.85;;;3.50;;
49722;SDS011;43484;43.608;1.458;2024-03-02T07:11:12;10.18;;;3.47;;
49722;SDS011;43484;43.608;1.458;2024-03-02T07:13:39;11.35;;;3.53;;
49722;SDS011;43484;43.608;1.458;2024-03-02T07:16:06;6.88;;;2.83;;
49722;SDS011;43484;43.608;1.458;2024-03-02T07:18:54;7.13;;;3.20;;
49722;SDS011;43484;43.608;1.458;2024-03-02T07:21:22;10.65;;;3.30;;
49722;SDS011;43484;43.608;1.458;2024-03-02T07:23:49;6.80;;;3.17;;
49722;SDS011;43484;43.608;1.458;2024-03-02T07:26:16;5.18;;;2.67;;
49722;SDS011;43484;43.608;1.458;2024-03-02T07:28:47;8.77;;;3.10;;
49722;SDS011;43484;43.608;1.458;2024-03-02T07:31:15;4.63;;;2.78;;
49722;SDS011;43484;43.608;1.458;2024-03-02T07:33:45;7.93;;;2.88;;
49722;SDS011;43484;43.608;1.458;2024-03-02T07:36:12;8.18;;;2.83;;
49722;SDS011;43484;43.608;1.458;2024-03-02T07:38:39;7.15;;;2.85;;
49722;SDS011;43484;43.608;1.458;2024-03-02T07:41:07;9.70;;;2.95;;
49722;SDS011;43484;43.608;1.458;2024-03-02T07:43:34;4.57;;;2.65;;
49722;SDS011;43484;43.608;1.458;2024-03-02T07:46:01;9.55;;;2.83;;
49722;SDS011;43484;43.608;1.458;2024-03-02T07:48:29;5.72;;;2.92;;
49722;SDS011;43484;43.608;1.458;2024-03-02T07:50:57;4.40;;;2.53;;
49722;SDS011;43484;43.608;1.458;2024-03-02T07:53:23;4.30;;;2.15;;
49722;SDS011;43484;43.608;1.458;2024-03-02T07:55:50;7.47;;;2.10;;
49722;SDS011;43484;43.608;1.458;2024-03-02T07:58:17;6.80;;;3.05;;
49722;SDS011;43484;43.608;1.458;2024-03-02T08:00:45;2.97;;;2.00;;
49722;SDS011;43484;43.608;1.458;2024-03-02T08:03:13;9.45;;;2.88;;
49722;SDS011;43484;43.608;1.458;2024-03-02T08:05:40;13.32;;;2.92;;
49722;SDS011;43484;43.608;1.458;2024-03-02T08:08:07;11.65;;;2.85;;
49722;SDS011;43484;43.608;1.458;2024-03-02T08:10:34;11.00;;;2.58;;
49722;SDS011;43484;43.608;1.458;2024-03-02T08:13:01;7.72;;;2.33;;
49722;SDS011;43484;43.608;1.458;2024-03-02T08:15:28;4.72;;;2.20;;
49722;SDS011;43484;43.608;1.458;2024-03-02T08:17:54;7.78;;;2.88;;
49722;SDS011;43484;43.608;1.458;2024-03-02T08:20:22;8.35;;;2.58;;
49722;SDS011;43484;43.608;1.458;2024-03-02T08:22:49;4.75;;;2.45;;
49722;SDS011;43484;43.608;1.458;2024-03-02T08:25:16;7.38;;;3.25;;
49722;SDS011;43484;43.608;1.458;2024-03-02T08:27:43;5.32;;;2.40;;
49722;SDS011;43484;43.608;1.458;2024-03-02T08:30:09;9.50;;;3.03;;
49722;SDS011;43484;43.608;1.458;2024-03-02T08:32:37;6.90;;;2.33;;
49722;SDS011;43484;43.608;1.458;2024-03-02T08:35:04;6.65;;;2.35;;
49722;SDS011;43484;43.608;1.458;2024-03-02T08:37:32;4.82;;;2.45;;
49722;SDS011;43484;43.608;1.458;2024-03-02T08:39:59;4.38;;;2.35;;
49722;SDS011;43484;43.608;1.458;2024-03-02T08:42:26;5.25;;;2.33;;
49722;SDS011;43484;43.608;1.458;2024-03-02T08:44:53;8.13;;;2.25;;
49722;SDS011;43484;43.608;1.458;2024-03-02T08:47:19;7.30;;;2.80;;
49722;SDS011;43484;43.608;1.458;2024-03-02T08:49:46;8.93;;;2.38;;
49722;SDS011;43484;43.608;1.458;2024-03-02T08:52:12;7.03;;;2.42;;
49722;SDS011;43484;43.608;1.458;2024-03-02T08:54:39;7.43;;;2.95;;
49722;SDS011;43484;43.608;1.458;2024-03-02T08:57:06;4.82;;;2.20;;
49722;SDS011;43484;43.608;1.458;2024-03-02T08:59:33;6.38;;;1.90;;
49722;SDS011;43484;43.608;1.458;2024-03-02T09:02:00;4.95;;;2.17;;
49722;SDS011;43484;43.608;1.458;2024-03-02T09:04:27;4.70;;;2.17;;
49722;SDS011;43484;43.608;1.458;2024-03-02T09:06:58;7.60;;;1.80;;
49722;SDS011;43484;43.608;1.458;2024-03-02T09:09:25;4.78;;;2.17;;
49722;SDS011;43484;43.608;1.458;2024-03-02T09:11:52;8.30;;;2.15;;
49722;SDS011;43484;43.608;1.458;2024-03-02T09:14:21;4.88;;;1.73;;
49722;SDS011;43484;43.608;1.458;2024-03-02T09:16:48;6.53;;;2.03;;
49722;SDS011;43484;43.608;1.458;2024-03-02T09:19:15;10.85;;;2.60;;
49722;SDS011;43484;43.608;1.458;2024-03-02T09:21:42;6.30;;;3.13;;
49722;SDS011;43484;43.608;1.458;2024-03-02T09:24:10;11.70;;;3.05;;
49722;SDS011;43484;43.608;1.458;2024-03-02T09:26:40;8.43;;;2.53;;
49722;SDS011;43484;43.608;1.458;2024-03-02T09:29:07;7.20;;;3.05;;
49722;SDS011;43484;43.608;1.458;2024-03-02T09:31:39;8.23;;;2.88;;
49722;SDS011;43484;43.608;1.458;2024-03-02T09:34:09;5.25;;;2.58;;
49722;SDS011;43484;43.608;1.458;2024-03-02T09:36:36;8.80;;;2.40;;
49722;SDS011;43484;43.608;1.458;2024-03-02T09:39:03;10.05;;;3.08;;
49722;SDS011;43484;43.608;1.458;2024-03-02T09:41:30;9.50;;;2.83;;
49722;SDS011;43484;43.608;1.458;2024-03-02T09:43:59;15.07;;;2.38;;
49722;SDS011;43484;43.608;1.458;2024-03-02T09:46:26;7.65;;;2.28;;
49722;SDS011;43484;43.608;1.458;2024-03-02T09:48:52;9.13;;;2.00;;
49722;SDS011;43484;43.608;1.458;2024-03-02T09:51:19;6.57;;;2.72;;
49722;SDS011;43484;43.608;1.458;2024-03-02T09:53:46;11.35;;;2.30;;
49722;SDS011;43484;43.608;1.458;2024-03-02T09:56:13;8.80;;;2.75;;
49722;SDS011;43484;43.608;1.458;2024-03-02T09:58:42;11.70;;;3.05;;
49722;SDS011;43484;43.608;1.458;2024-03-02T10:01:10;8.98;;;2.15;;
49722;SDS011;43484;43.608;1.458;2024-03-02T10:03:37;5.75;;;1.75;;
49722;SDS011;43484;43.608;1.458;2024-03-02T10:06:25;5.22;;;2.28;;
49722;SDS011;43484;43.608;1.458;2024-03-02T10:08:53;14.77;;;2.28;;
49722;SDS011;43484;43.608;1.458;2024-03-02T10:11:28;5.85;;;2.53;;
49722;SDS011;43484;43.608;1.458;2024-03-02T10:16:36;7.20;;;1.70;;
49722;SDS011;43484;43.608;1.458;2024-03-02T10:19:19;13.68;;;2.28;;
49722;SDS011;43484;43.608;1.458;2024-03-02T10:21:51;12.23;;;2.42;;
49722;SDS011;43484;43.608;1.458;2024-03-02T10:24:22;7.70;;;2.50;;
49722;SDS011;43484;43.608;1.458;2024-03-02T10:26:49;9.15;;;2.40;;
49722;SDS011;43484;43.608;1.458;2024-03-02T10:29:16;11.02;;;2.75;;
49722;SDS011;43484;43.608;1.458;2024-03-02T10:31:44;10.70;;;4.30;;
49722;SDS011;43484;43.608;1.458;2024-03-02T10:34:12;9.48;;;2.30;;
49722;SDS011;43484;43.608;1.458;2024-03-02T10:36:41;7.90;;;1.98;;
49722;SDS011;43484;43.608;1.458;2024-03-02T10:39:09;9.70;;;2.50;;
49722;SDS011;43484;43.608;1.458;2024-03-02T10:41:37;9.60;;;2.05;;
49722;SDS011;43484;43.608;1.458;2024-03-02T10:44:05;11.95;;;2.65;;
49722;SDS011;43484;43.608;1.458;2024-03-02T10:46:33;12.70;;;2.20;;
49722;SDS011;43484;43.608;1.458;2024-03-02T10:49:02;13.60;;;2.35;;
49722;SDS011;43484;43.608;1.458;2024-03-02T10:51:33;7.90;;;2.33;;
49722;SDS011;43484;43.608;1.458;2024-03-02T10:54:02;11.95;;;2.50;;
49722;SDS011;43484;43.608;1.458;2024-03-02T10:56:31;18.70;;;2.78;;
49722;SDS011;43484;43.608;1.458;2024-03-02T11:01:53;10.82;;;2.42;;
49722;SDS011;43484;43.608;1.458;2024-03-02T11:04:31;7.80;;;2.22;;
49722;SDS011;43484;43.608;1.458;2024-03-02T11:07:05;19.00;;;2.03;;
49722;SDS011;43484;43.608;1.458;2024-03-02T11:09:34;11.73;;;2.20;;
49722;SDS011;43484;43.608;1.458;2024-03-02T11:12:19;7.78;;;2.35;;
49722;SDS011;43484;43.608;1.458;2024-03-02T11:14:51;10.85;;;2.25;;
49722;SDS011;43484;43.608;1.458;2024-03-02T11:17:18;16.05;;;2.70;;
49722;SDS011;43484;43.608;1.458;2024-03-02T11:19:45;19.13;;;2.08;;
49722;SDS011;43484;43.608;1.458;2024-03-02T11:22:14;5.30;;;1.38;;
49722;SDS011;43484;43.608;1.458;2024-03-02T11:24:51;10.07;;;2.40;;
49722;SDS011;43484;43.608;1.458;2024-03-02T11:30:56;13.48;;;4.97;;
49722;SDS011;43484;43.608;1.458;2024-03-02T11:33:01;20.95;;;5.53;;
49722;SDS011;43484;43.608;1.458;2024-03-02T11:35:41;10.27;;;2.65;;
49722;SDS011;43484;43.608;1.458;2024-03-02T11:38:15;11.13;;;2.65;;
49722;SDS011;43484;43.608;1.458;2024-03-02T11:40:42;12.02;;;2.90;;
49722;SDS011;43484;43.608;1.458;2024-03-02T11:43:08;6.60;;;2.00;;
49722;SDS011;43484;43.608;1.458;2024-03-02T11:45:36;6.43;;;2.25;;
49722;SDS011;43484;43.608;1.458;2024-03-02T11:48:06;9.13;;;2.35;;
49722;SDS011;43484;43.608;1.458;2024-03-02T11:50:42;12.80;;;2.35;;
49722;SDS011;43484;43.608;1.458;2024-03-02T11:53:14;14.55;;;2.70;;
49722;SDS011;43484;43.608;1.458;2024-03-02T11:55:41;12.43;;;3.75;;
49722;SDS011;43484;43.608;1.458;2024-03-02T11:58:13;17.85;;;2.45;;
49722;SDS011;43484;43.608;1.458;2024-03-02T12:00:47;9.65;;;2.42;;
49722;SDS011;43484;43.608;1.458;2024-03-02T12:03:17;14.13;;;2.60;;
49722;SDS011;43484;43.608;1.458;2024-03-02T12:05:49;9.18;;;2.42;;
49722;SDS011;43484;43.608;1.458;2024-03-02T12:08:17;9.55;;;2.22;;
49722;SDS011;43484;43.608;1.458;2024-03-02T12:10:58;9.13;;;2.22;;
49722;SDS011;43484;43.608;1.458;2024-03-02T12:13:27;9.18;;;1.33;;
49722;SDS011;43484;43.608;1.458;2024-03-02T12:15:54;10.35;;;2.33;;
49722;SDS011;43484;43.608;1.458;2024-03-02T12:18:24;7.78;;;1.58;;
49722;SDS011;43484;43.608;1.458;2024-03-02T12:20:52;12.18;;;2.00;;
49722;SDS011;43484;43.608;1.458;2024-03-02T12:23:19;6.47;;;2.15;;
49722;SDS011;43484;43.608;1.458;2024-03-02T12:25:46;9.63;;;2.10;;
49722;SDS011;43484;43.608;1.458;2024-03-02T12:28:13;11.43;;;2.67;;
49722;SDS011;43484;43.608;1.458;2024-03-02T12:30:40;12.63;;;1.73;;
49722;SDS011;43484;43.608;1.458;2024-03-02T12:33:07;7.47;;;1.60;;
49722;SDS011;43484;43.608;1.458;2024-03-02T12:35:34;10.48;;;1.73;;
49722;SDS011;43484;43.608;1.458;2024-03-02T12:38:02;9.75;;;2.70;;
49722;SDS011;43484;43.608;1.458;2024-03-02T12:40:28;9.50;;;1.70;;
49722;SDS011;43484;43.608;1.458;2024-03-02T12:42:58;14.40;;;1.77;;
49722;SDS011;43484;43.608;1.458;2024-03-02T12:45:25;7.57;;;1.55;;
49722;SDS011;43484;43.608;1.458;2024-03-02T12:47:52;11.30;;;3.03;;
49722;SDS011;43484;43.608;1.458;2024-03-02T12:50:20;9.80;;;2.38;;
49722;SDS011;43484;43.608;1.458;2024-03-02T12:52:53;11.02;;;2.22;;
49722;SDS011;43484;43.608;1.458;2024-03-02T12:55:21;7.23;;;2.53;;
49722;SDS011;43484;43.608;1.458;2024-03-02T12:57:50;9.93;;;1.77;;
49722;SDS011;43484;43.608;1.458;2024-03-02T13:00:20;9.85;;;2.00;;
49722;SDS011;43484;43.608;1.458;2024-03-02T13:02:49;11.52;;;2.70;;
49722;SDS011;43484;43.608;1.458;2024-03-02T13:05:17;11.25;;;2.05;;
49722;SDS011;43484;43.608;1.458;2024-03-02T13:07:46;8.45;;;2.35;;
49722;SDS011;43484;43.608;1.458;2024-03-02T13:10:15;7.07;;;1.83;;
49722;SDS011;43484;43.608;1.458;2024-03-02T13:12:42;6.75;;;1.67;;
49722;SDS011;43484;43.608;1.458;2024-03-02T13:15:09;8.98;;;2.00;;
49722;SDS011;43484;43.608;1.458;2024-03-02T13:17:41;5.50;;;2.03;;
49722;SDS011;43484;43.608;1.458;2024-03-02T13:20:08;8.95;;;2.05;;
49722;SDS011;43484;43.608;1.458;2024-03-02T13:22:37;10.32;;;1.80;;
49722;SDS011;43484;43.608;1.458;2024-03-02T13:25:04;7.95;;;1.92;;
49722;SDS011;43484;43.608;1.458;2024-03-02T13:27:32;7.95;;;2.03;;
49722;SDS011;43484;43.608;1.458;2024-03-02T13:29:59;11.95;;;2.08;;
49722;SDS011;43484;43.608;1.458;2024-03-02T13:32:26;8.38;;;2.17;;
49722;SDS011;43484;43.608;1.458;2024-03-02T13:34:53;15.85;;;1.80;;
49722;SDS011;43484;43.608;1.458;2024-03-02T13:37:22;5.20;;;2.08;;
49722;SDS011;43484;43.608;1.458;2024-03-02T13:39:50;7.22;;;1.30;;
49722;SDS011;43484;43.608;1.458;2024-03-02T13:42:16;4.80;;;1.67;;
49722;SDS011;43484;43.608;1.458;2024-03-02T13:44:44;12.35;;;2.45;;
49722;SDS011;43484;43.608;1.458;2024-03-02T13:47:13;10.98;;;1.75;;
49722;SDS011;43484;43.608;1.458;2024-03-02T13:49:41;11.73;;;1.98;;
49722;SDS011;43484;43.608;1.458;2024-03-02T13:52:12;7.93;;;2.40;;
49722;SDS011;43484;43.608;1.458;2024-03-02T13:54:44;9.82;;;2.08;;
49722;SDS011;43484;43.608;1.458;2024-03-02T13:57:11;12.73;;;2.70;;
49722;SDS011;43484;43.608;1.458;2024-03-02T13:59:38;14.80;;;3.25;;
49722;SDS011;43484;43.608;1.458;2024-03-02T14:02:06;9.50;;;1.80;;
49722;SDS011;43484;43.608;1.458;2024-03-02T14:04:34;11.10;;;2.50;;
49722;SDS011;43484;43.608;1.458;2024-03-02T14:07:02;7.28;;;1.92;;
49722;SDS011;43484;43.608;1.458;2024-03-02T14:09:29;5.85;;;1.58;;
49722;SDS011;43484;43.608;1.458;2024-03-02T14:11:56;8.63;;;1.77;;
49722;SDS011;43484;43.608;1.458;2024-03-02T14:14:23;11.40;;;2.28;;
49722;SDS011;43484;43.608;1.458;2024-03-02T14:16:50;8.00;;;1.80;;
49722;SDS011;43484;43.608;1.458;2024-03-02T14:19:18;7.55;;;1.60;;
49722;SDS011;43484;43.608;1.458;2024-03-02T14:21:45;12.77;;;1.40;;
49722;SDS011;43484;43.608;1.458;2024-03-02T14:24:12;7.97;;;1.67;;
49722;SDS011;43484;43.608;1.458;2024-03-02T14:26:39;9.70;;;2.08;;
49722;SDS011;43484;43.608;1.458;2024-03-02T14:29:06;6.07;;;1.92;;
49722;SDS011;43484;43.608;1.458;2024-03-02T14:31:32;10.32;;;1.90;;
49722;SDS011;43484;43.608;1.458;2024-03-02T14:33:59;6.35;;;1.65;;
49722;SDS011;43484;43.608;1.458;2024-03-02T14:36:27;6.55;;;1.90;;
49722;SDS011;43484;43.608;1.458;2024-03-02T14:38:56;6.93;;;1.52;;
49722;SDS011;43484;43.608;1.458;2024-03-02T14:41:24;4.18;;;1.17;;
49722;SDS011;43484;43.608;1.458;2024-03-02T14:43:51;10.77;;;2.20;;
49722;SDS011;43484;43.608;1.458;2024-03-02T14:46:18;10.73;;;1.80;;
49722;SDS011;43484;43.608;1.458;2024-03-02T14:48:46;4.95;;;1.50;;
49722;SDS011;43484;43.608;1.458;2024-03-02T14:51:13;8.57;;;1.48;;
49722;SDS011;43484;43.608;1.458;2024-03-02T14:53:40;10.00;;;1.65;;
49722;SDS011;43484;43.608;1.458;2024-03-02T14:56:07;6.18;;;1.70;;
49722;SDS011;43484;43.608;1.458;2024-03-02T14:58:34;6.78;;;1.48;;
49722;SDS011;43484;43.608;1.458;2024-03-02T15:01:04;8.57;;;1.20;;
49722;SDS011;43484;43.608;1.458;2024-03-02T15:03:35;7.38;;;1.35;;
49722;SDS011;43484;43.608;1.458;2024-03-02T15:06:02;8.90;;;1.85;;
49722;SDS011;43484;43.608;1.458;2024-03-02T15:08:30;8.30;;;1.77;;
49722;SDS011;43484;43.608;1.458;2024-03-02T15:11:00;10.57;;;2.00;;
49722;SDS011;43484;43.608;1.458;2024-03-02T15:13:30;6.38;;;1.30;;